Cape Henlopen — WYR8756 — position and weather

sailwx.info

Track history (hours):
 
Tides and Currents Weather Stations Pressure Air Temp Water Temp Dewpoint Dewpoint Depression Visibility Wind Speed Wind Dir Waves Ship Positions

Cape Henlopen

Owner: DELAWARE RIVER & BAY AUTHORITY, CAPE MAY, NJ. More information available from US FCC via Universal Licensing System and Coast Guard Vessel Documentation Center.

Last reported at 2018-Jul-16 14:27 UTC. Time now 2018-Jul-16 14:46 UTC.
Position N 38°48' W 075°07'.

; draft 3 m.

Type: Passenger vessel. MMSI: 366914180.

Date/timePositionNaut miles runAvg speedWind from/ knotsBaromVisibWave heightAir tempDewpointWater temp
2018-Jul-16 14:27N 38°48' W 075°07'1 2.7
2018-Jul-16 14:00N 38°47' W 075°07'3 6.9
2018-Jul-16 13:30N 38°50' W 075°06'711.6
2018-Jul-16 12:55N 38°56' W 075°01'4 8.9
2018-Jul-16 12:30N 38°58' W 074°58'0 0.1
2018-Jul-16 12:00N 38°58' W 074°58'0 0.0
2018-Jul-16 11:30N 38°58' W 074°58'0 0.0
2018-Jul-16 11:00N 38°58' W 074°58'0 0.0
2018-Jul-16 10:30N 38°58' W 074°58'0 0.0
2018-Jul-16 09:57N 38°58' W 074°58'0 0.0
2018-Jul-16 09:30N 38°58' W 074°58'0 0.0
2018-Jul-16 09:00N 38°58' W 074°58'0 0.0
2018-Jul-16 08:30N 38°58' W 074°58'0 0.0
2018-Jul-16 08:00N 38°58' W 074°58'0 0.0
2018-Jul-16 06:39N 38°58' W 074°58'0 0.0
2018-Jul-16 06:15N 38°58' W 074°58'0 0.0
2018-Jul-16 05:51N 38°58' W 074°58'0 0.0
2018-Jul-16 05:24N 38°58' W 074°58'0 0.0
2018-Jul-16 05:00N 38°58' W 074°58'0 0.0
2018-Jul-16 04:27N 38°58' W 074°58'0 0.0
2018-Jul-16 00:42N 38°58' W 074°58'0 0.0
2018-Jul-16 00:27N 38°58' W 074°58'1 3.2
2018-Jul-15 23:59N 38°57' W 074°59'1 0.3
2018-Jul-15 21:27N 38°57' W 075°00'2 4.3
2018-Jul-15 20:57N 38°58' W 074°58'2 3.6
2018-Jul-15 20:30N 38°57' W 074°59'610.7
2018-Jul-15 19:54N 38°52' W 075°03'6 5.3
2018-Jul-15 18:52N 38°47' W 075°07'13 7.5
2018-Jul-15 17:05N 38°58' W 074°58'0 0.1
2018-Jul-15 14:09N 38°58' W 074°58'0 1.1
2018-Jul-15 13:45N 38°58' W 074°58'0 0.0
2018-Jul-15 13:27N 38°58' W 074°58'511.5
2018-Jul-15 13:00N 38°54' W 075°02'713.0
2018-Jul-15 12:30N 38°49' W 075°07'2 4.1
2018-Jul-15 12:00N 38°47' W 075°07'4 7.3
2018-Jul-15 11:31N 38°51' W 075°06'612.0
2018-Jul-15 10:59N 38°56' W 075°01'4 8.0
2018-Jul-15 10:30N 38°58' W 074°58'0 0.0
2018-Jul-15 10:00N 38°58' W 074°58'0 0.0
2018-Jul-15 09:24N 38°58' W 074°58'0 0.0
2018-Jul-15 09:00N 38°58' W 074°58'0 0.0
2018-Jul-15 08:30N 38°58' W 074°58'0 0.0
2018-Jul-15 07:57N 38°58' W 074°58'0 0.0
2018-Jul-15 07:30N 38°58' W 074°58'0 0.0
2018-Jul-15 07:00N 38°58' W 074°58'0 0.0
2018-Jul-15 06:30N 38°58' W 074°58'0 0.0
2018-Jul-15 06:00N 38°58' W 074°58'0 0.0
2018-Jul-15 05:30N 38°58' W 074°58'0 0.0
2018-Jul-15 05:00N 38°58' W 074°58'0 0.0
2018-Jul-15 04:30N 38°58' W 074°58'0 0.0
2018-Jul-15 03:42N 38°58' W 074°58'0 0.0
2018-Jul-15 03:24N 38°58' W 074°58'0 0.0
2018-Jul-15 02:54N 38°58' W 074°58'0 0.0
2018-Jul-15 02:30N 38°58' W 074°58'0 0.0
2018-Jul-15 02:00N 38°58' W 074°58'0 0.0
2018-Jul-15 01:27N 38°58' W 074°58'0 0.0
2018-Jul-15 01:00N 38°58' W 074°58'0 0.0
2018-Jul-15 00:24N 38°58' W 074°58'1 1.9
2018-Jul-15 00:00N 38°58' W 074°59'5 2.4
2018-Jul-14 21:47N 38°54' W 075°03'311.8
2018-Jul-14 21:29N 38°57' W 075°00'3 5.6
2018-Jul-14 21:00N 38°58' W 074°58'2 4.1
2018-Jul-14 20:30N 38°57' W 074°60'611.0
2018-Jul-14 20:00N 38°52' W 075°03'510.7
2018-Jul-14 19:30N 38°48' W 075°07'1 1.2
2018-Jul-14 19:00N 38°47' W 075°07'510.2
2018-Jul-14 18:29N 38°52' W 075°05'612.9
2018-Jul-14 18:00N 38°57' W 074°60'2 4.1
2018-Jul-14 17:28N 38°58' W 074°58'1 1.5
2018-Jul-14 17:00N 38°58' W 074°58'510.8
2018-Jul-14 16:30N 38°54' W 075°03'611.9
2018-Jul-14 15:59N 38°48' W 075°07'1 2.8
2018-Jul-14 15:30N 38°47' W 075°07'4 6.6
2018-Jul-14 14:58N 38°50' W 075°06'612.0
2018-Jul-14 14:29N 38°55' W 075°02'5 4.6
2018-Jul-14 13:30N 38°58' W 074°58'611.8
2018-Jul-14 13:00N 38°54' W 075°03'612.7
2018-Jul-14 12:30N 38°48' W 075°07'1 2.7
2018-Jul-14 12:00N 38°47' W 075°07'4 8.5
2018-Jul-14 11:30N 38°51' W 075°06'611.3
2018-Jul-14 11:00N 38°56' W 075°01'4 7.9
2018-Jul-14 10:30N 38°58' W 074°58'0 0.0
2018-Jul-14 10:00N 38°58' W 074°58'0 0.0
2018-Jul-14 09:23N 38°58' W 074°58'0 0.0
2018-Jul-14 08:59N 38°58' W 074°58'0 0.0
2018-Jul-14 08:30N 38°58' W 074°58'0 0.0
2018-Jul-14 07:54N 38°58' W 074°58'0 0.0
2018-Jul-14 07:29N 38°58' W 074°58'0 0.0
2018-Jul-14 06:59N 38°58' W 074°58'0 0.0
2018-Jul-14 06:26N 38°58' W 074°58'0 0.0
2018-Jul-14 05:57N 38°58' W 074°58'0 0.0
2018-Jul-14 05:27N 38°58' W 074°58'0 0.0
2018-Jul-14 04:56N 38°58' W 074°58'0 0.0
2018-Jul-14 04:30N 38°58' W 074°58'0 0.0
2018-Jul-14 04:00N 38°58' W 074°58'0 0.0
2018-Jul-14 03:27N 38°58' W 074°58'0 0.0
2018-Jul-14 02:54N 38°58' W 074°58'0 0.0
2018-Jul-14 02:30N 38°58' W 074°58'0 0.0
2018-Jul-14 01:51N 38°58' W 074°58'0 0.0
2018-Jul-14 01:27N 38°58' W 074°58'0 0.0
2018-Jul-14 00:54N 38°58' W 074°58'0 0.0
2018-Jul-14 00:30N 38°58' W 074°58'2 3.8
2018-Jul-14 00:00N 38°57' W 074°60'612.7
2018-Jul-13 23:31N 38°52' W 075°03'510.1
2018-Jul-13 23:00N 38°48' W 075°07'1 1.3
2018-Jul-13 22:26N 38°47' W 075°07'13 7.5
2018-Jul-13 20:40N 38°58' W 074°58'2 9.8
2018-Jul-13 20:29N 38°57' W 074°59'811.2
2018-Jul-13 19:48N 38°50' W 075°04'310.9
2018-Jul-13 19:30N 38°48' W 075°07'1 1.8
2018-Jul-13 18:58N 38°47' W 075°07'7 2.8
2018-Jul-13 16:31N 38°53' W 075°03'411.2
2018-Jul-13 16:07N 38°49' W 075°05'112.2
2018-Jul-13 16:00N 38°48' W 075°07'1 2.3
2018-Jul-13 15:25N 38°47' W 075°07'13 9.5
2018-Jul-13 14:00N 38°58' W 074°58'0 0.1
2018-Jul-13 13:30N 38°58' W 074°58'510.7
2018-Jul-13 13:00N 38°54' W 075°02'612.2
2018-Jul-13 12:31N 38°49' W 075°07'2 4.4
2018-Jul-13 12:00N 38°47' W 075°07'4 7.7
2018-Jul-13 11:31N 38°51' W 075°06'611.2
2018-Jul-13 11:00N 38°55' W 075°02'4 9.0
2018-Jul-13 10:31N 38°58' W 074°58'0 0.0
2018-Jul-13 10:01N 38°58' W 074°58'0 0.0
2018-Jul-13 09:30N 38°58' W 074°58'0 0.0
2018-Jul-13 08:59N 38°58' W 074°58'0 0.0
2018-Jul-13 08:30N 38°58' W 074°58'0 0.0
2018-Jul-13 08:00N 38°58' W 074°58'0 0.0
2018-Jul-13 07:30N 38°58' W 074°58'0 0.0
2018-Jul-13 07:00N 38°58' W 074°58'0 0.0
2018-Jul-13 06:30N 38°58' W 074°58'0 0.0
2018-Jul-13 06:00N 38°58' W 074°58'0 0.0
2018-Jul-13 05:30N 38°58' W 074°58'0 0.0
2018-Jul-13 05:00N 38°58' W 074°58'0 0.0
2018-Jul-13 04:30N 38°58' W 074°58'0 0.0
2018-Jul-13 03:57N 38°58' W 074°58'0 0.0
2018-Jul-13 03:27N 38°58' W 074°58'0 0.0
2018-Jul-13 02:57N 38°58' W 074°58'0 0.0
2018-Jul-13 02:30N 38°58' W 074°58'0 0.0
2018-Jul-13 01:57N 38°58' W 074°58'0 0.0
2018-Jul-13 01:27N 38°58' W 074°58'0 0.0
2018-Jul-13 01:00N 38°58' W 074°58'0 0.0
2018-Jul-13 00:30N 38°58' W 074°58'0 0.0
2018-Jul-12 23:51N 38°58' W 074°58'0 0.2
2018-Jul-12 23:29N 38°58' W 074°58'711.3
2018-Jul-12 22:54N 38°53' W 075°03'512.8
2018-Jul-12 22:30N 38°48' W 075°06'2 3.1
2018-Jul-12 21:59N 38°47' W 075°07'13 7.2
2018-Jul-12 20:08N 38°58' W 074°58'2 9.2
2018-Jul-12 19:58N 38°57' W 074°59'611.9
2018-Jul-12 19:30N 38°53' W 075°03'511.1
2018-Jul-12 19:00N 38°48' W 075°07'1 2.0
2018-Jul-12 18:30N 38°47' W 075°07'13 6.7
2018-Jul-12 16:35N 38°58' W 074°58'310.5
2018-Jul-12 16:16N 38°55' W 075°01'410.5
2018-Jul-12 15:56N 38°52' W 075°03'410.4
2018-Jul-12 15:30N 38°49' W 075°06'2 3.6
2018-Jul-12 15:00N 38°47' W 075°07'12 9.6
2018-Jul-12 13:45N 38°57' W 074°59'1 2.5
2018-Jul-12 13:11N 38°58' W 074°58'0 0.2
2018-Jul-12 12:59N 38°58' W 074°58'0 0.0
2018-Jul-12 12:23N 38°58' W 074°58'0 0.0
2018-Jul-12 11:50N 38°58' W 074°58'0 0.0
2018-Jul-12 11:29N 38°58' W 074°58'0 0.0
2018-Jul-12 10:56N 38°58' W 074°58'0 0.0
2018-Jul-12 10:29N 38°58' W 074°58'0 0.0
2018-Jul-12 09:56N 38°58' W 074°58'0 0.0
2018-Jul-12 09:29N 38°58' W 074°58'0 0.0
2018-Jul-12 08:59N 38°58' W 074°58'0 0.0
2018-Jul-12 08:26N 38°58' W 074°58'0 0.0
2018-Jul-12 07:56N 38°58' W 074°58'0 0.0
2018-Jul-12 07:26N 38°58' W 074°58'0 0.0
2018-Jul-12 06:59N 38°58' W 074°58'0 0.0
2018-Jul-12 05:59N 38°58' W 074°58'0 0.0
2018-Jul-12 02:59N 38°58' W 074°58'0 0.0
2018-Jul-12 02:23N 38°58' W 074°58'0 0.0
2018-Jul-12 01:17N 38°58' W 074°58'0 0.0
2018-Jul-12 00:59N 38°58' W 074°58'0 0.0
2018-Jul-12 00:26N 38°58' W 074°58'0 0.0
2018-Jul-11 23:59N 38°58' W 074°58'0 0.1
2018-Jul-11 23:30N 38°58' W 074°58'5 9.7
2018-Jul-11 23:00N 38°55' W 075°02'713.0
2018-Jul-11 22:30N 38°49' W 075°07'11 2.1
2018-Jul-11 17:10N 38°58' W 074°58'0 0.5
2018-Jul-11 16:38N 38°58' W 074°58'2 9.3
2018-Jul-11 16:23N 38°57' W 074°60'411.0
2018-Jul-11 16:00N 38°53' W 075°03'611.3
2018-Jul-11 15:30N 38°48' W 075°07'1 2.7
2018-Jul-11 15:00N 38°47' W 075°07'13 8.6
2018-Jul-11 13:27N 38°58' W 074°58'0 0.0
2018-Jul-11 12:41N 38°58' W 074°58'0 0.0
2018-Jul-11 12:29N 38°58' W 074°58'0 0.0
2018-Jul-11 11:59N 38°58' W 074°58'0 0.0
2018-Jul-11 11:17N 38°58' W 074°58'0 0.0
2018-Jul-11 10:59N 38°58' W 074°58'0 0.0
2018-Jul-11 10:29N 38°58' W 074°58'0 0.0
2018-Jul-11 09:59N 38°58' W 074°58'0 0.0
2018-Jul-11 09:29N 38°58' W 074°58'0 0.0
2018-Jul-11 08:56N 38°58' W 074°58'0 0.0
2018-Jul-11 08:29N 38°58' W 074°58'0 0.0
2018-Jul-11 07:56N 38°58' W 074°58'0 0.0
2018-Jul-11 07:29N 38°58' W 074°58'0 0.0
2018-Jul-11 06:59N 38°58' W 074°58'0 0.0
2018-Jul-11 06:26N 38°58' W 074°58'0 0.0
2018-Jul-11 05:59N 38°58' W 074°58'0 0.0
2018-Jul-11 05:29N 38°58' W 074°58'0 0.0
2018-Jul-11 04:59N 38°58' W 074°58'0 0.0
2018-Jul-11 04:26N 38°58' W 074°58'0 0.0
2018-Jul-11 03:59N 38°58' W 074°58'0 0.0
2018-Jul-11 03:29N 38°58' W 074°58'0 0.0
2018-Jul-11 02:59N 38°58' W 074°58'0 0.0
2018-Jul-11 02:23N 38°58' W 074°58'0 0.0
2018-Jul-11 01:59N 38°58' W 074°58'0 0.0
2018-Jul-11 01:29N 38°58' W 074°58'0 0.3
2018-Jul-11 01:00N 38°58' W 074°58'611.2
2018-Jul-11 00:30N 38°54' W 075°03'712.7
2018-Jul-10 23:57N 38°48' W 075°07'12 7.2
2018-Jul-10 22:17N 38°58' W 074°58'0 1.3
2018-Jul-10 21:56N 38°58' W 074°58'5 9.4
2018-Jul-10 21:26N 38°55' W 075°02'7 4.9
2018-Jul-10 20:00N 38°49' W 075°07'611.2
2018-Jul-10 19:29N 38°54' W 075°03'511.1
2018-Jul-10 19:00N 38°58' W 074°58'1 0.6
2018-Jul-10 17:52N 38°58' W 074°58'1 1.8
2018-Jul-10 17:30N 38°58' W 074°58'611.7
2018-Jul-10 17:00N 38°54' W 075°03'7 6.5
2018-Jul-10 15:54N 38°47' W 075°07'810.6
2018-Jul-10 15:06N 38°55' W 075°03'213.6
2018-Jul-10 14:59N 38°56' W 075°01'4 7.8
2018-Jul-10 14:30N 38°58' W 074°58'0 0.8
2018-Jul-10 14:00N 38°58' W 074°58'511.0
2018-Jul-10 13:30N 38°54' W 075°03'612.1
2018-Jul-10 13:00N 38°49' W 075°07'2 2.7
2018-Jul-10 12:21N 38°47' W 075°07'3 9.2
2018-Jul-10 12:00N 38°50' W 075°06'611.8
2018-Jul-10 11:30N 38°55' W 075°02'5 9.1
2018-Jul-10 10:59N 38°58' W 074°58'0 0.0
2018-Jul-10 10:30N 38°58' W 074°58'0 0.0
2018-Jul-10 09:56N 38°58' W 074°58'0 0.0
2018-Jul-10 09:26N 38°58' W 074°58'0 0.0
2018-Jul-10 08:56N 38°58' W 074°58'0 0.0
2018-Jul-10 08:20N 38°58' W 074°58'0 0.0
2018-Jul-10 06:47N 38°58' W 074°58'0 0.0
2018-Jul-10 06:23N 38°58' W 074°58'0 0.0
2018-Jul-10 05:56N 38°58' W 074°58'0 0.0
2018-Jul-10 05:17N 38°58' W 074°58'0 0.0
2018-Jul-10 04:56N 38°58' W 074°58'0 0.0
2018-Jul-10 04:29N 38°58' W 074°58'0 0.0
2018-Jul-10 03:56N 38°58' W 074°58'0 0.0
2018-Jul-10 03:26N 38°58' W 074°58'0 0.0
2018-Jul-10 02:59N 38°58' W 074°58'0 0.0
2018-Jul-10 02:29N 38°58' W 074°58'0 0.0
2018-Jul-10 01:59N 38°58' W 074°58'0 0.0
2018-Jul-10 01:29N 38°58' W 074°58'0 0.0
2018-Jul-10 01:00N 38°58' W 074°58'5 9.8
2018-Jul-10 00:28N 38°54' W 075°02'612.7
2018-Jul-10 00:00N 38°49' W 075°07'3 5.0
2018-Jul-09 23:30N 38°47' W 075°07'4 7.4
2018-Jul-09 23:00N 38°51' W 075°06'911.7
2018-Jul-09 22:15N 38°57' W 074°59'1 4.8
2018-Jul-09 21:58N 38°58' W 074°58'0 0.1
2018-Jul-09 21:29N 38°58' W 074°58'511.0
2018-Jul-09 21:01N 38°54' W 075°02'612.9
2018-Jul-09 20:31N 38°49' W 075°06'2 3.6
2018-Jul-09 20:00N 38°47' W 075°07'4 8.1
2018-Jul-09 19:31N 38°51' W 075°06'911.1
2018-Jul-09 18:43N 38°58' W 074°59'1 4.3
2018-Jul-09 18:30N 38°58' W 074°58'0 0.1
2018-Jul-09 18:00N 38°58' W 074°58'611.7
2018-Jul-09 17:28N 38°53' W 075°03'612.0
2018-Jul-09 17:00N 38°48' W 075°06'2 3.0
2018-Jul-09 16:30N 38°47' W 075°07'13 9.9
2018-Jul-09 15:13N 38°58' W 074°58'1 1.2
2018-Jul-09 14:36N 38°58' W 074°58'1 8.4
2018-Jul-09 14:27N 38°57' W 074°59'511.1
2018-Jul-09 14:00N 38°53' W 075°02'611.4
2018-Jul-09 13:30N 38°48' W 075°06'2 3.3
2018-Jul-09 13:00N 38°47' W 075°07'3 5.7
2018-Jul-09 12:31N 38°50' W 075°07'712.8
2018-Jul-09 12:00N 38°55' W 075°02'4 9.1
2018-Jul-09 11:30N 38°58' W 074°58'0 0.0
2018-Jul-09 11:00N 38°58' W 074°58'0 0.0
2018-Jul-09 10:18N 38°58' W 074°58'0 0.0
2018-Jul-09 10:00N 38°58' W 074°58'0 0.0
2018-Jul-09 09:06N 38°58' W 074°58'0 0.0
2018-Jul-09 08:57N 38°58' W 074°58'0 0.0
2018-Jul-09 07:36N 38°58' W 074°58'0 0.0
2018-Jul-09 07:12N 38°58' W 074°58'0 0.0
2018-Jul-09 06:54N 38°58' W 074°58'0 0.0
2018-Jul-09 04:09N 38°58' W 074°58'0 0.0
2018-Jul-09 04:00N 38°58' W 074°58'0 0.0
2018-Jul-09 03:30N 38°58' W 074°58'0 0.0
2018-Jul-09 02:57N 38°58' W 074°58'0 0.0
2018-Jul-09 02:30N 38°58' W 074°58'0 0.0
2018-Jul-09 01:09N 38°58' W 074°58'4 0.3
2018-Jul-08 13:16N 38°56' W 075°01'311.2
2018-Jul-08 12:59N 38°53' W 075°03'511.2
2018-Jul-08 12:30N 38°48' W 075°07'1 2.7
2018-Jul-08 12:01N 38°47' W 075°07'2 4.6
2018-Jul-08 11:30N 38°49' W 075°07'912.6
2018-Jul-08 10:46N 38°57' W 074°60'2 8.4
2018-Jul-08 10:31N 38°58' W 074°58'0 0.0
2018-Jul-08 07:03N 38°58' W 074°58'0 0.0
2018-Jul-08 06:48N 38°58' W 074°58'0 0.0
2018-Jul-08 06:24N 38°58' W 074°58'0 0.0
2018-Jul-08 06:00N 38°58' W 074°58'0 0.0
2018-Jul-07 03:12N 38°58' W 074°58'0 0.0
2018-Jul-07 03:00N 38°58' W 074°58'0 0.0
2018-Jul-07 02:30N 38°58' W 074°58'0 0.0
2018-Jul-07 02:00N 38°58' W 074°58'9 3.2
2018-Jul-06 23:18N 38°51' W 075°04'412.2
2018-Jul-06 22:59N 38°48' W 075°07'1 2.0
2018-Jul-06 22:25N 38°47' W 075°07'13 7.2
2018-Jul-06 20:35N 38°58' W 074°58'  
Track history (hours):
 
Tides and Currents Weather Stations Pressure Air Temp Water Temp Dewpoint Dewpoint Depression Visibility Wind Speed Wind Dir Waves Ship Positions

Cape Henlopen

Owner: DELAWARE RIVER & BAY AUTHORITY, CAPE MAY, NJ. More information available from US FCC via Universal Licensing System and Coast Guard Vessel Documentation Center.

Last reported at 2018-Jul-16 14:27 UTC. Time now 2018-Jul-16 14:46 UTC.
Position N 38°48' W 075°07'.

; draft 3 m.

Type: Passenger vessel. MMSI: 366914180.

Date/timePositionNaut miles runAvg speedWind from/ knotsBaromVisibWave heightAir tempDewpointWater temp
2018-Jul-16 14:27N 38°48' W 075°07'1 2.7
2018-Jul-16 14:00N 38°47' W 075°07'3 6.9
2018-Jul-16 13:30N 38°50' W 075°06'711.6
2018-Jul-16 12:55N 38°56' W 075°01'4 8.9
2018-Jul-16 12:30N 38°58' W 074°58'0 0.1
2018-Jul-16 12:00N 38°58' W 074°58'0 0.0
2018-Jul-16 11:30N 38°58' W 074°58'0 0.0
2018-Jul-16 11:00N 38°58' W 074°58'0 0.0
2018-Jul-16 10:30N 38°58' W 074°58'0 0.0
2018-Jul-16 09:57N 38°58' W 074°58'0 0.0
2018-Jul-16 09:30N 38°58' W 074°58'0 0.0
2018-Jul-16 09:00N 38°58' W 074°58'0 0.0
2018-Jul-16 08:30N 38°58' W 074°58'0 0.0
2018-Jul-16 08:00N 38°58' W 074°58'0 0.0
2018-Jul-16 06:39N 38°58' W 074°58'0 0.0
2018-Jul-16 06:15N 38°58' W 074°58'0 0.0
2018-Jul-16 05:51N 38°58' W 074°58'0 0.0
2018-Jul-16 05:24N 38°58' W 074°58'0 0.0
2018-Jul-16 05:00N 38°58' W 074°58'0 0.0
2018-Jul-16 04:27N 38°58' W 074°58'0 0.0
2018-Jul-16 00:42N 38°58' W 074°58'0 0.0
2018-Jul-16 00:27N 38°58' W 074°58'1 3.2
2018-Jul-15 23:59N 38°57' W 074°59'1 0.3
2018-Jul-15 21:27N 38°57' W 075°00'2 4.3
2018-Jul-15 20:57N 38°58' W 074°58'2 3.6
2018-Jul-15 20:30N 38°57' W 074°59'610.7
2018-Jul-15 19:54N 38°52' W 075°03'6 5.3
2018-Jul-15 18:52N 38°47' W 075°07'13 7.5
2018-Jul-15 17:05N 38°58' W 074°58'0 0.1
2018-Jul-15 14:09N 38°58' W 074°58'0 1.1
2018-Jul-15 13:45N 38°58' W 074°58'0 0.0
2018-Jul-15 13:27N 38°58' W 074°58'511.5
2018-Jul-15 13:00N 38°54' W 075°02'713.0
2018-Jul-15 12:30N 38°49' W 075°07'2 4.1
2018-Jul-15 12:00N 38°47' W 075°07'4 7.3
2018-Jul-15 11:31N 38°51' W 075°06'612.0
2018-Jul-15 10:59N 38°56' W 075°01'4 8.0
2018-Jul-15 10:30N 38°58' W 074°58'0 0.0
2018-Jul-15 10:00N 38°58' W 074°58'0 0.0
2018-Jul-15 09:24N 38°58' W 074°58'0 0.0
2018-Jul-15 09:00N 38°58' W 074°58'0 0.0
2018-Jul-15 08:30N 38°58' W 074°58'0 0.0
2018-Jul-15 07:57N 38°58' W 074°58'0 0.0
2018-Jul-15 07:30N 38°58' W 074°58'0 0.0
2018-Jul-15 07:00N 38°58' W 074°58'0 0.0
2018-Jul-15 06:30N 38°58' W 074°58'0 0.0
2018-Jul-15 06:00N 38°58' W 074°58'0 0.0
2018-Jul-15 05:30N 38°58' W 074°58'0 0.0
2018-Jul-15 05:00N 38°58' W 074°58'0 0.0
2018-Jul-15 04:30N 38°58' W 074°58'0 0.0
2018-Jul-15 03:42N 38°58' W 074°58'0 0.0
2018-Jul-15 03:24N 38°58' W 074°58'0 0.0
2018-Jul-15 02:54N 38°58' W 074°58'0 0.0
2018-Jul-15 02:30N 38°58' W 074°58'0 0.0
2018-Jul-15 02:00N 38°58' W 074°58'0 0.0
2018-Jul-15 01:27N 38°58' W 074°58'0 0.0
2018-Jul-15 01:00N 38°58' W 074°58'0 0.0
2018-Jul-15 00:24N 38°58' W 074°58'1 1.9
2018-Jul-15 00:00N 38°58' W 074°59'5 2.4
2018-Jul-14 21:47N 38°54' W 075°03'311.8
2018-Jul-14 21:29N 38°57' W 075°00'3 5.6
2018-Jul-14 21:00N 38°58' W 074°58'2 4.1
2018-Jul-14 20:30N 38°57' W 074°60'611.0
2018-Jul-14 20:00N 38°52' W 075°03'510.7
2018-Jul-14 19:30N 38°48' W 075°07'1 1.2
2018-Jul-14 19:00N 38°47' W 075°07'510.2
2018-Jul-14 18:29N 38°52' W 075°05'612.9
2018-Jul-14 18:00N 38°57' W 074°60'2 4.1
2018-Jul-14 17:28N 38°58' W 074°58'1 1.5
2018-Jul-14 17:00N 38°58' W 074°58'510.8
2018-Jul-14 16:30N 38°54' W 075°03'611.9
2018-Jul-14 15:59N 38°48' W 075°07'1 2.8
2018-Jul-14 15:30N 38°47' W 075°07'4 6.6
2018-Jul-14 14:58N 38°50' W 075°06'612.0
2018-Jul-14 14:29N 38°55' W 075°02'5 4.6
2018-Jul-14 13:30N 38°58' W 074°58'611.8
2018-Jul-14 13:00N 38°54' W 075°03'612.7
2018-Jul-14 12:30N 38°48' W 075°07'1 2.7
2018-Jul-14 12:00N 38°47' W 075°07'4 8.5
2018-Jul-14 11:30N 38°51' W 075°06'611.3
2018-Jul-14 11:00N 38°56' W 075°01'4 7.9
2018-Jul-14 10:30N 38°58' W 074°58'0 0.0
2018-Jul-14 10:00N 38°58' W 074°58'0 0.0
2018-Jul-14 09:23N 38°58' W 074°58'0 0.0
2018-Jul-14 08:59N 38°58' W 074°58'0 0.0
2018-Jul-14 08:30N 38°58' W 074°58'0 0.0
2018-Jul-14 07:54N 38°58' W 074°58'0 0.0
2018-Jul-14 07:29N 38°58' W 074°58'0 0.0
2018-Jul-14 06:59N 38°58' W 074°58'0 0.0
2018-Jul-14 06:26N 38°58' W 074°58'0 0.0
2018-Jul-14 05:57N 38°58' W 074°58'0 0.0
2018-Jul-14 05:27N 38°58' W 074°58'0 0.0
2018-Jul-14 04:56N 38°58' W 074°58'0 0.0
2018-Jul-14 04:30N 38°58' W 074°58'0 0.0
2018-Jul-14 04:00N 38°58' W 074°58'0 0.0
2018-Jul-14 03:27N 38°58' W 074°58'0 0.0
2018-Jul-14 02:54N 38°58' W 074°58'0 0.0
2018-Jul-14 02:30N 38°58' W 074°58'0 0.0
2018-Jul-14 01:51N 38°58' W 074°58'0 0.0
2018-Jul-14 01:27N 38°58' W 074°58'0 0.0
2018-Jul-14 00:54N 38°58' W 074°58'0 0.0
2018-Jul-14 00:30N 38°58' W 074°58'2 3.8
2018-Jul-14 00:00N 38°57' W 074°60'612.7
2018-Jul-13 23:31N 38°52' W 075°03'510.1
2018-Jul-13 23:00N 38°48' W 075°07'1 1.3
2018-Jul-13 22:26N 38°47' W 075°07'13 7.5
2018-Jul-13 20:40N 38°58' W 074°58'2 9.8
2018-Jul-13 20:29N 38°57' W 074°59'811.2
2018-Jul-13 19:48N 38°50' W 075°04'310.9
2018-Jul-13 19:30N 38°48' W 075°07'1 1.8
2018-Jul-13 18:58N 38°47' W 075°07'7 2.8
2018-Jul-13 16:31N 38°53' W 075°03'411.2
2018-Jul-13 16:07N 38°49' W 075°05'112.2
2018-Jul-13 16:00N 38°48' W 075°07'1 2.3
2018-Jul-13 15:25N 38°47' W 075°07'13 9.5
2018-Jul-13 14:00N 38°58' W 074°58'0 0.1
2018-Jul-13 13:30N 38°58' W 074°58'510.7
2018-Jul-13 13:00N 38°54' W 075°02'612.2
2018-Jul-13 12:31N 38°49' W 075°07'2 4.4
2018-Jul-13 12:00N 38°47' W 075°07'4 7.7
2018-Jul-13 11:31N 38°51' W 075°06'611.2
2018-Jul-13 11:00N 38°55' W 075°02'4 9.0
2018-Jul-13 10:31N 38°58' W 074°58'0 0.0
2018-Jul-13 10:01N 38°58' W 074°58'0 0.0
2018-Jul-13 09:30N 38°58' W 074°58'0 0.0
2018-Jul-13 08:59N 38°58' W 074°58'0 0.0
2018-Jul-13 08:30N 38°58' W 074°58'0 0.0
2018-Jul-13 08:00N 38°58' W 074°58'0 0.0
2018-Jul-13 07:30N 38°58' W 074°58'0 0.0
2018-Jul-13 07:00N 38°58' W 074°58'0 0.0
2018-Jul-13 06:30N 38°58' W 074°58'0 0.0
2018-Jul-13 06:00N 38°58' W 074°58'0 0.0
2018-Jul-13 05:30N 38°58' W 074°58'0 0.0
2018-Jul-13 05:00N 38°58' W 074°58'0 0.0
2018-Jul-13 04:30N 38°58' W 074°58'0 0.0
2018-Jul-13 03:57N 38°58' W 074°58'0 0.0
2018-Jul-13 03:27N 38°58' W 074°58'0 0.0
2018-Jul-13 02:57N 38°58' W 074°58'0 0.0
2018-Jul-13 02:30N 38°58' W 074°58'0 0.0
2018-Jul-13 01:57N 38°58' W 074°58'0 0.0
2018-Jul-13 01:27N 38°58' W 074°58'0 0.0
2018-Jul-13 01:00N 38°58' W 074°58'0 0.0
2018-Jul-13 00:30N 38°58' W 074°58'0 0.0
2018-Jul-12 23:51N 38°58' W 074°58'0 0.2
2018-Jul-12 23:29N 38°58' W 074°58'711.3
2018-Jul-12 22:54N 38°53' W 075°03'512.8
2018-Jul-12 22:30N 38°48' W 075°06'2 3.1
2018-Jul-12 21:59N 38°47' W 075°07'13 7.2
2018-Jul-12 20:08N 38°58' W 074°58'2 9.2
2018-Jul-12 19:58N 38°57' W 074°59'611.9
2018-Jul-12 19:30N 38°53' W 075°03'511.1
2018-Jul-12 19:00N 38°48' W 075°07'1 2.0
2018-Jul-12 18:30N 38°47' W 075°07'13 6.7
2018-Jul-12 16:35N 38°58' W 074°58'310.5
2018-Jul-12 16:16N 38°55' W 075°01'410.5
2018-Jul-12 15:56N 38°52' W 075°03'410.4
2018-Jul-12 15:30N 38°49' W 075°06'2 3.6
2018-Jul-12 15:00N 38°47' W 075°07'12 9.6
2018-Jul-12 13:45N 38°57' W 074°59'1 2.5
2018-Jul-12 13:11N 38°58' W 074°58'0 0.2
2018-Jul-12 12:59N 38°58' W 074°58'0 0.0
2018-Jul-12 12:23N 38°58' W 074°58'0 0.0
2018-Jul-12 11:50N 38°58' W 074°58'0 0.0
2018-Jul-12 11:29N 38°58' W 074°58'0 0.0
2018-Jul-12 10:56N 38°58' W 074°58'0 0.0
2018-Jul-12 10:29N 38°58' W 074°58'0 0.0
2018-Jul-12 09:56N 38°58' W 074°58'0 0.0
2018-Jul-12 09:29N 38°58' W 074°58'0 0.0
2018-Jul-12 08:59N 38°58' W 074°58'0 0.0
2018-Jul-12 08:26N 38°58' W 074°58'0 0.0
2018-Jul-12 07:56N 38°58' W 074°58'0 0.0
2018-Jul-12 07:26N 38°58' W 074°58'0 0.0
2018-Jul-12 06:59N 38°58' W 074°58'0 0.0
2018-Jul-12 05:59N 38°58' W 074°58'0 0.0
2018-Jul-12 02:59N 38°58' W 074°58'0 0.0
2018-Jul-12 02:23N 38°58' W 074°58'0 0.0
2018-Jul-12 01:17N 38°58' W 074°58'0 0.0
2018-Jul-12 00:59N 38°58' W 074°58'0 0.0
2018-Jul-12 00:26N 38°58' W 074°58'0 0.0
2018-Jul-11 23:59N 38°58' W 074°58'0 0.1
2018-Jul-11 23:30N 38°58' W 074°58'5 9.7
2018-Jul-11 23:00N 38°55' W 075°02'713.0
2018-Jul-11 22:30N 38°49' W 075°07'11 2.1
2018-Jul-11 17:10N 38°58' W 074°58'0 0.5
2018-Jul-11 16:38N 38°58' W 074°58'2 9.3
2018-Jul-11 16:23N 38°57' W 074°60'411.0
2018-Jul-11 16:00N 38°53' W 075°03'611.3
2018-Jul-11 15:30N 38°48' W 075°07'1 2.7
2018-Jul-11 15:00N 38°47' W 075°07'13 8.6
2018-Jul-11 13:27N 38°58' W 074°58'0 0.0
2018-Jul-11 12:41N 38°58' W 074°58'0 0.0
2018-Jul-11 12:29N 38°58' W 074°58'0 0.0
2018-Jul-11 11:59N 38°58' W 074°58'0 0.0
2018-Jul-11 11:17N 38°58' W 074°58'0 0.0
2018-Jul-11 10:59N 38°58' W 074°58'0 0.0
2018-Jul-11 10:29N 38°58' W 074°58'0 0.0
2018-Jul-11 09:59N 38°58' W 074°58'0 0.0
2018-Jul-11 09:29N 38°58' W 074°58'0 0.0
2018-Jul-11 08:56N 38°58' W 074°58'0 0.0
2018-Jul-11 08:29N 38°58' W 074°58'0 0.0
2018-Jul-11 07:56N 38°58' W 074°58'0 0.0
2018-Jul-11 07:29N 38°58' W 074°58'0 0.0
2018-Jul-11 06:59N 38°58' W 074°58'0 0.0
2018-Jul-11 06:26N 38°58' W 074°58'0 0.0
2018-Jul-11 05:59N 38°58' W 074°58'0 0.0
2018-Jul-11 05:29N 38°58' W 074°58'0 0.0
2018-Jul-11 04:59N 38°58' W 074°58'0 0.0
2018-Jul-11 04:26N 38°58' W 074°58'0 0.0
2018-Jul-11 03:59N 38°58' W 074°58'0 0.0
2018-Jul-11 03:29N 38°58' W 074°58'0 0.0
2018-Jul-11 02:59N 38°58' W 074°58'0 0.0
2018-Jul-11 02:23N 38°58' W 074°58'0 0.0
2018-Jul-11 01:59N 38°58' W 074°58'0 0.0
2018-Jul-11 01:29N 38°58' W 074°58'0 0.3
2018-Jul-11 01:00N 38°58' W 074°58'611.2
2018-Jul-11 00:30N 38°54' W 075°03'712.7
2018-Jul-10 23:57N 38°48' W 075°07'12 7.2
2018-Jul-10 22:17N 38°58' W 074°58'0 1.3
2018-Jul-10 21:56N 38°58' W 074°58'5 9.4
2018-Jul-10 21:26N 38°55' W 075°02'7 4.9
2018-Jul-10 20:00N 38°49' W 075°07'611.2
2018-Jul-10 19:29N 38°54' W 075°03'511.1
2018-Jul-10 19:00N 38°58' W 074°58'1 0.6
2018-Jul-10 17:52N 38°58' W 074°58'1 1.8
2018-Jul-10 17:30N 38°58' W 074°58'611.7
2018-Jul-10 17:00N 38°54' W 075°03'7 6.5
2018-Jul-10 15:54N 38°47' W 075°07'810.6
2018-Jul-10 15:06N 38°55' W 075°03'213.6
2018-Jul-10 14:59N 38°56' W 075°01'4 7.8
2018-Jul-10 14:30N 38°58' W 074°58'0 0.8
2018-Jul-10 14:00N 38°58' W 074°58'511.0
2018-Jul-10 13:30N 38°54' W 075°03'612.1
2018-Jul-10 13:00N 38°49' W 075°07'2 2.7
2018-Jul-10 12:21N 38°47' W 075°07'3 9.2
2018-Jul-10 12:00N 38°50' W 075°06'611.8
2018-Jul-10 11:30N 38°55' W 075°02'5 9.1
2018-Jul-10 10:59N 38°58' W 074°58'0 0.0
2018-Jul-10 10:30N 38°58' W 074°58'0 0.0
2018-Jul-10 09:56N 38°58' W 074°58'0 0.0
2018-Jul-10 09:26N 38°58' W 074°58'0 0.0
2018-Jul-10 08:56N 38°58' W 074°58'0 0.0
2018-Jul-10 08:20N 38°58' W 074°58'0 0.0
2018-Jul-10 06:47N 38°58' W 074°58'0 0.0
2018-Jul-10 06:23N 38°58' W 074°58'0 0.0
2018-Jul-10 05:56N 38°58' W 074°58'0 0.0
2018-Jul-10 05:17N 38°58' W 074°58'0 0.0
2018-Jul-10 04:56N 38°58' W 074°58'0 0.0
2018-Jul-10 04:29N 38°58' W 074°58'0 0.0
2018-Jul-10 03:56N 38°58' W 074°58'0 0.0
2018-Jul-10 03:26N 38°58' W 074°58'0 0.0
2018-Jul-10 02:59N 38°58' W 074°58'0 0.0
2018-Jul-10 02:29N 38°58' W 074°58'0 0.0
2018-Jul-10 01:59N 38°58' W 074°58'0 0.0
2018-Jul-10 01:29N 38°58' W 074°58'0 0.0
2018-Jul-10 01:00N 38°58' W 074°58'5 9.8
2018-Jul-10 00:28N 38°54' W 075°02'612.7
2018-Jul-10 00:00N 38°49' W 075°07'3 5.0
2018-Jul-09 23:30N 38°47' W 075°07'4 7.4
2018-Jul-09 23:00N 38°51' W 075°06'911.7
2018-Jul-09 22:15N 38°57' W 074°59'1 4.8
2018-Jul-09 21:58N 38°58' W 074°58'0 0.1
2018-Jul-09 21:29N 38°58' W 074°58'511.0
2018-Jul-09 21:01N 38°54' W 075°02'612.9
2018-Jul-09 20:31N 38°49' W 075°06'2 3.6
2018-Jul-09 20:00N 38°47' W 075°07'4 8.1
2018-Jul-09 19:31N 38°51' W 075°06'911.1
2018-Jul-09 18:43N 38°58' W 074°59'1 4.3
2018-Jul-09 18:30N 38°58' W 074°58'0 0.1
2018-Jul-09 18:00N 38°58' W 074°58'611.7
2018-Jul-09 17:28N 38°53' W 075°03'612.0
2018-Jul-09 17:00N 38°48' W 075°06'2 3.0
2018-Jul-09 16:30N 38°47' W 075°07'13 9.9
2018-Jul-09 15:13N 38°58' W 074°58'1 1.2
2018-Jul-09 14:36N 38°58' W 074°58'1 8.4
2018-Jul-09 14:27N 38°57' W 074°59'511.1
2018-Jul-09 14:00N 38°53' W 075°02'611.4
2018-Jul-09 13:30N 38°48' W 075°06'2 3.3
2018-Jul-09 13:00N 38°47' W 075°07'3 5.7
2018-Jul-09 12:31N 38°50' W 075°07'712.8
2018-Jul-09 12:00N 38°55' W 075°02'4 9.1
2018-Jul-09 11:30N 38°58' W 074°58'0 0.0
2018-Jul-09 11:00N 38°58' W 074°58'0 0.0
2018-Jul-09 10:18N 38°58' W 074°58'0 0.0
2018-Jul-09 10:00N 38°58' W 074°58'0 0.0
2018-Jul-09 09:06N 38°58' W 074°58'0 0.0
2018-Jul-09 08:57N 38°58' W 074°58'0 0.0
2018-Jul-09 07:36N 38°58' W 074°58'0 0.0
2018-Jul-09 07:12N 38°58' W 074°58'0 0.0
2018-Jul-09 06:54N 38°58' W 074°58'0 0.0
2018-Jul-09 04:09N 38°58' W 074°58'0 0.0
2018-Jul-09 04:00N 38°58' W 074°58'0 0.0
2018-Jul-09 03:30N 38°58' W 074°58'0 0.0
2018-Jul-09 02:57N 38°58' W 074°58'0 0.0
2018-Jul-09 02:30N 38°58' W 074°58'0 0.0
2018-Jul-09 01:09N 38°58' W 074°58'4 0.3
2018-Jul-08 13:16N 38°56' W 075°01'311.2
2018-Jul-08 12:59N 38°53' W 075°03'511.2
2018-Jul-08 12:30N 38°48' W 075°07'1 2.7
2018-Jul-08 12:01N 38°47' W 075°07'2 4.6
2018-Jul-08 11:30N 38°49' W 075°07'912.6
2018-Jul-08 10:46N 38°57' W 074°60'2 8.4
2018-Jul-08 10:31N 38°58' W 074°58'0 0.0
2018-Jul-08 07:03N 38°58' W 074°58'0 0.0
2018-Jul-08 06:48N 38°58' W 074°58'0 0.0
2018-Jul-08 06:24N 38°58' W 074°58'0 0.0
2018-Jul-08 06:00N 38°58' W 074°58'0 0.0
2018-Jul-07 03:12N 38°58' W 074°58'0 0.0
2018-Jul-07 03:00N 38°58' W 074°58'0 0.0
2018-Jul-07 02:30N 38°58' W 074°58'0 0.0
2018-Jul-07 02:00N 38°58' W 074°58'9 3.2
2018-Jul-06 23:18N 38°51' W 075°04'412.2
2018-Jul-06 22:59N 38°48' W 075°07'1 2.0
2018-Jul-06 22:25N 38°47' W 075°07'13 7.2
2018-Jul-06 20:35N 38°58' W 074°58'  

Dump ship's entire track history